Extreme weather reports worldwide

Low visibility

Station
 
Location
 
Name
 
Wind
Knots
Gust
Knots
Vis
SM
Temp/Dew
C
Baro
inHg
METAR
 
KMWN 32 38 0 16/16 KMWN 072349Z 28032G38KT 0SM FG VV000 16/16 RMK 60016 10158 20141
NRA YNAR Narrandera, AU Narrandera Airport 2 0.09 6/6 30.27 YNAR 080000Z AUTO 31002KT 0150 FG OVC002 06/06 Q1025
VGO LEVX Vigo, ES Vigo Airport 2 0.12 16/16 30.00 LEVX 080000Z VRB02KT 0200 R19/P2000 R01/0250N FG VV001 16/16 Q1016 NOSIG
WGA YSWG Wagga Wagga, AU Wagga Wagga City Airport 0 0.16 6/5 30.24 YSWG 080000Z AUTO 00000KT 0250 // OVC002 06/05 Q1024
GFF YGTH Griffith, AU Griffith Airport 4 0.16 8/8 30.27 YGTH 080000Z AUTO 32004KT 290V360 0250 FG OVC002 08/08 Q1025

Station
 
Location
 
Name
 
Wind
Knots
Gust
Knots
Vis
SM
Temp/Dew
C
Baro
inHg
METAR
 
TJM USTR Tyumen, RU Roshchino International Airport 4 0.16 17/17 30.06 USTR 080000Z 31002MPS 0250 0100E FG FU SCT002 17/17 Q1018 R21/CLRD65 R12/////99 TEMPO 0100 FG FU VV001 RMK QBB060
VSA MMVA Villahermosa, MX Carlos Rovirosa Pérez International Airport 30 0.25 24/23 29.96 MMVA 072344Z 11030KT 1/4SM TSRA OVC010CB 24/23 A2996 RMK SLP141 52007 913 8/9// VRB CONDS TSRA B41
ETNH DE Hohn Air Base 2 0.28 10/9 30.24 ETNH 072320Z AUTO 17002KT 0450 // ////// 10/09 Q1024 ///
RRS ENRO Røros, NO Røros Airport 0 0.31 3/2 30.06 ENRO 072350Z AUTO 00000KT 0500 R31/1900 FG NCD 03/02 Q1018
PYJ UERP Yakutia, RU Polyarny Airport 4 0.43 6/6 29.65 UERP 080000Z 31002MPS 0700 R35/0900 -RA FG VV003 06/06 Q1004 R35/290250 NOSIG RMK QBB110 QFE709
FAE EKVG Vagar, FO Vagar Airport 10 0.5 12/12 29.91 EKVG 072350Z AUTO 19010KT 0800 R12/P1500D R30/P1500D -DZ FG VV003 12/12 Q1013 RMK OVC002/// WIND SKEID 20018KT
KUH RJCK Kushiro, JP Kushiro Airport 6 0.56 21/21 29.82 RJCK 080000Z 18006KT 0900 R17/1000V1600U FG -SHRA BKN001 BKN002 21/21 Q1010
LXG VLLN Luang Namtha, LA Luang Namtha Airport 0 0.62 24/24 29.76 VLLN 080000Z 00000KT 1000 DZ BKN010 SCT040 OVC090 24/24 Q1008 NOSIG
CWSA 21 0.63 20/20 29.99 CWSA 080000Z AUTO 23021KT 5/8SM -RA BR VV002 20/20 A2999 RMK SLP156 DENSITY ALT 600FT
TNM SCRM Isla Rey Jorge, AQ Teniente Rodolfo Marsh Martin Base 22 0.75 -1/-2 29.82 SCRM 080000Z 26022KT 1200 BR OVC006 M01/M02 Q1010 NOSIG
ZPH KZPH Zephyrhills, US Zephyrhills Municipal Airport 8 19 0.75 23/22 30.17 KZPH 072355Z AUTO 14008G19KT 100V170 3/4SM +TSRA BR OVC015 24/23 A3017 RMK A02 LTG DSNT SE THRU W P0050 T02360226 10349 20235 403490222 60050
TAD KTAD Trinidad, US Perry Stokes Airport 3 20 0.75 16/15 30.34 KTAD 072354Z AUTO VRB03G20KT 3/4SM +TSRA BR BKN032 OVC041 16/15 A3034 RMK AO2 PK WND 09032/2327 WSHFT 2321 LTG DSNT N-SE RAB11 TSB30 SLP217 P0032 60043 T01610150 10328 20156 51037 $
FSP LFVP Saint-Pierre, PM St Pierre Airport 11 0.87 19/19 29.85 LFVP 080000Z AUTO 26011KT 1400 1200 R26/1800D BR VV/// 19/19 Q1011
PKV ULOO Pskov, RU Pskov Airport 0 0.93 10/10 30.18 ULOO 080000Z 00000MPS 1500 0250E R19/P2000D PRFG BR NSC 10/10 Q1022 NOSIG RMK QFE762
AGT SGES Ciudad del Este, PY Guarani International Airport 5 0.93 15/15 29.91 SGES 080000Z 18005KT 1500 DZ BR BKN003 OVC010 15/15 Q1013
NWI EGSH Norwich, GB Norwich International Airport 4 0.99 15/14 30.30 EGSH 072350Z AUTO 21004KT 1600 HZ NCD 15/14 Q1026
RKSQ Yeonpyeong-myeon, KR Yeonpyeong-Myeon Heliport 7 17 0.99 27/26 29.71 RKSQ 072337Z 20007G017KT 1600 BR BKN001 OVC020 27/26 A2971 RMK CIG001
YQI CYQI Yarmouth, CA Yarmouth Airport 11 17 1 20/20 29.98 CYQI 080000Z 23011G17KT 1SM BR OVC002 20/20 A2998 RMK FG4SF4 SLP154 DENSITY ALT 700FT
SLL OOSA Salalah, OM Salalah Airport 4 1.12 24/24 29.59 OOSA 072350Z 13004KT 1800 -DZ BR SCT003 BKN008 OVC018 24/24 Q1002 NOSIG
TRV VOTV Thiruvananthapuram, IN Trivandrum International Airport 4 1.24 26/24 29.73 VOTV 080000Z 29004KT 2000 BR SCT012 BKN080 26/24 Q1007 NOSIG
CCJ VOCL Calicut, IN Calicut International Airport 7 1.24 23/22 29.68 VOCL 080000Z 25007KT 2000 RA SCT006 SCT012 FEW025CB OVC080 23/22 Q1005 NOSIG
NAG VANP Nagpur, IN Dr. Babasaheb Ambedkar International Airport 5 1.24 25/24 29.47 VANP 080000Z 32005KT 2000 -TSRA FEW010 SCT018 FEW030CB OVC080 25/24 Q0998 TEMPO 1500 TSRA
GMU KGMU Greenville, US Greenville Downtown Airport 4 1.25 25/21 30.20 KGMU 080004Z VRB04KT 1 1/4SM +TSRA SCT027 BKN041 OVC070 25/22 A3020 RMK AO2 LTG DSNT N AND SW P0011 T02500217
CLW KCLW Clearwater, US Clearwater Air Park 9 1.25 23/22 30.11 KCLW 072355Z AUTO 15009KT 1 1/4SM +RA SCT018 BKN034 OVC047 23/22 A3011 RMK AO2 P0032
KBDH 4 1.25 19/18 30.07 KBDH 072355Z AUTO 03004KT 1 1/4SM +RA BKN004 OVC018 19/18 A3007 RMK AO2 VIS 3/4V3 P0002
SJW ZBSJ Shijiazhuang, CN Shijiazhuang Daguocun International Airport 6 1.37 28/28 29.68 ZBSJ 080000Z 02003MPS 350V060 2200 -RA BR OVC040 28/28 Q1005 BECMG TL0150 3000
LSI EGPB Lerwick, GB Sumburgh Airport 13 1.37 13/13 30.12 EGPB 072350Z AUTO 24013KT 2200 -DZ OVC002/// 13/13 Q1020
NSK UOOO Norilsk, RU Norilsk-Alykel Airport 12 1.49 13/13 29.73 UOOO 080000Z 22006MPS 2400 -RA BR BKN002 OVC006 13/13 Q1007 R19/29//55 NOSIG RMK QBB070 QFE739/0986
WSN PFWS South Naknek, US South Naknek Nr 2 Airport 19 24 1.5 11/11 30.01 PFWS 080005Z AUTO 23019G24KT 1 1/2SM BR OVC004 11/11 A3001 RMK AO2 RAE01 P0000
DSM KDSM Des Moines, US Des Moines International Airport 26 36 1.5 30/23 29.94 KDSM 080001Z 30026G36KT 230V320 1 1/2SM +TSRA BKN055CB BKN070 BKN120 OVC250 31/23 A2994 RMK AO2 PK WND 32036/0001 LTG DSNT N AND NE RAB00 PRESRR FRQ LTGICCCCG OHD-W-NE TS OHD-W-NE MOV E P0000 T03060233
KLKR Lancaster, US Lancaster County-Mc Whirter Field 0 1.5 26/24 30.16 KLKR 072355Z AUTO 00000KT 1 1/2SM BR CLR 26/24 A3016 RMK AO2
PLM WIPP Palembang-Sumatra Island, ID Sultan Mahmud Badaruddin II Airport 3 1.55 25/24 29.79 WIPP 080000Z 17003KT 2500 BR FEW010 25/24 Q1009
HGN VTCH TH Mae Hong Son Airport 0 1.55 24/23 29.70 VTCH 080000Z 00000KT 2500 -DZ BR FEW010 BKN025 24/23 Q1006 BECMG 4000 BR
CNN VOKN Kannur, IN Kannur International Airport 5 1.55 25/24 29.68 VOKN 080000Z 22005KT 2500 BR FEW004 SCT012 BKN080 25/24 Q1005 TEMPO 1500 -RA BR
JAI VIJP Jaipur, IN Jaipur International Airport 2 1.55 25/24 29.56 VIJP 080000Z VRB02KT 2500 BR SCT035 BKN100 25/24 Q1001 NOSIG
ATQ VIAR Amritsar, IN Sri Guru Ram Dass Jee International Airport 2 1.55 27/25 29.56 VIAR 080000Z VRB02KT 2500 BR SCT030 SCT090 27/25 Q1001 NOSIG
IXR VERC Ranchi, IN Birsa Munda Airport 6 1.55 24/23 29.56 VERC 080000Z 07006KT 2500 -RA SCT015 BKN100 24/23 Q1001 NOSIG
DIB VEMN Dibrugarh, IN Dibrugarh Airport 7 1.55 27/26 29.59 VEMN 080000Z 06007KT 2500 BR SCT020 BKN100 27/26 Q1002 NOSIG
GAU VEGT Guwahati, IN Lokpriya Gopinath Bordoloi International Airport 5 1.55 27/26 29.59 VEGT 080000Z 19005KT 2500 -TS SCT018 FEW025CB BKN090 27/26 Q1002 TEMPO 1500-TSRA
UDR VAUD Udaipur, IN Maharana Pratap Airport 0 1.55 26/25 29.56 VAUD 080000Z 00000KT 2500 BR BKN025 BKN080 26/25 Q1001 TEMPO 1500 BR
BOM VABB Mumbai, IN Chhatrapati Shivaji International Airport 0 1.55 26/25 29.47 VABB 080000Z 00000KT 2500 HZ SCT018 FEW030CB BKN090 26/25 Q0998 NOSIG
ZAL SCVD Valdivia, CL Pichoy Airport 2 1.55 7/7 30.27 SCVD 080000Z AUTO VRB02KT 2500 DZ BR SCT002 OVC007 07/07 Q1025
JOI SBJV Joinville, BR Lauro Carneiro de Loyola Airport 1 1.55 16/16 29.97 SBJV 080000Z 02001KT 2500 -RA BKN003 BKN020 16/16 Q1015 RERA
XAP SBCH Chapecó, BR Serafin Enoss Bertaso Airport 4 1.55 14/13 29.97 SBCH 080000Z 18004KT 2500 0800NW BCFG SCT002 SCT012 BKN080 14/13 Q1015
SXI OIBS IR Sirri Island Airport 4 1.55 32/29 29.41 OIBS 080000Z 03004KT 2500 BR NSC 32/29 Q0996